createdAt,value
2018-07-20T04:00:29.203Z,696.00
2018-07-20T04:01:29.157Z,720.00
2018-07-20T04:02:29.255Z,744.00
2018-07-20T04:03:29.171Z,768.00
2018-07-20T04:04:29.133Z,788.00
2018-07-20T04:05:29.114Z,812.00
2018-07-20T04:06:29.102Z,836.00
2018-07-20T04:07:29.091Z,860.00
2018-07-20T04:08:29.088Z,880.00
2018-07-20T04:09:29.066Z,900.00
2018-07-20T04:10:29.101Z,920.00
2018-07-20T04:11:29.050Z,936.00
2018-07-20T04:12:29.032Z,964.00
2018-07-20T04:13:29.034Z,984.00
2018-07-20T04:14:29.005Z,1008.00
2018-07-20T04:15:28.995Z,1032.00
2018-07-20T04:16:28.988Z,1052.00
2018-07-20T04:17:28.970Z,1076.00
2018-07-20T04:18:28.989Z,1100.00
2018-07-20T04:19:28.952Z,1132.00
2018-07-20T04:20:28.942Z,1164.00
2018-07-20T04:21:28.933Z,1192.00
2018-07-20T04:22:28.913Z,1220.00
2018-07-20T04:23:28.905Z,1240.00
2018-07-20T04:24:28.913Z,1260.00
2018-07-20T04:25:28.882Z,1284.00
2018-07-20T04:26:28.926Z,1308.00
2018-07-20T04:27:28.870Z,1332.00
2018-07-20T04:28:28.848Z,1360.00
2018-07-20T04:29:28.855Z,1384.00
2018-07-20T04:30:28.824Z,1408.00
2018-07-20T04:31:28.841Z,1432.00
2018-07-20T04:32:28.808Z,1452.00
2018-07-20T04:33:28.824Z,1480.00
2018-07-20T04:34:28.820Z,1500.00
2018-07-20T04:35:28.766Z,1520.00
2018-07-20T04:36:28.862Z,1544.00
2018-07-20T04:37:28.750Z,1572.00
2018-07-20T04:38:28.736Z,1588.00
2018-07-20T04:39:28.733Z,1612.00
2018-07-20T04:40:28.714Z,1636.00
2018-07-20T04:41:28.702Z,1664.00
2018-07-20T04:42:28.707Z,1688.00
2018-07-20T04:43:28.688Z,1708.00
2018-07-20T04:44:28.701Z,1724.00
2018-07-20T04:45:28.670Z,1756.00
2018-07-20T04:46:28.653Z,1780.00
2018-07-20T04:47:28.641Z,1800.00
2018-07-20T04:48:28.641Z,1824.00
2018-07-20T04:49:28.663Z,1844.00
2018-07-20T04:50:28.645Z,1864.00
2018-07-20T04:51:28.620Z,1896.00
2018-07-20T04:52:28.588Z,1916.00
2018-07-20T04:53:28.586Z,1940.00
2018-07-20T04:54:28.614Z,1960.00
2018-07-20T04:55:28.555Z,1984.00
2018-07-20T04:56:28.601Z,2012.00
2018-07-20T04:57:28.528Z,2036.00
2018-07-20T04:58:28.542Z,2056.00
2018-07-20T04:59:28.535Z,2076.00
2018-07-20T05:00:28.493Z,2100.00
2018-07-20T05:01:28.525Z,2124.00
2018-07-20T05:02:28.473Z,2148.00
2018-07-20T05:03:28.461Z,2172.00
2018-07-20T05:04:28.470Z,2192.00
2018-07-20T05:05:28.460Z,2208.00
2018-07-20T05:06:28.428Z,2232.00
2018-07-20T05:07:28.428Z,2248.00
2018-07-20T05:08:28.446Z,2268.00
2018-07-20T05:09:28.432Z,2284.00
2018-07-20T05:10:28.386Z,2300.00
2018-07-20T05:11:28.405Z,2320.00
2018-07-20T05:12:28.359Z,2336.00
2018-07-20T05:13:28.352Z,2352.00
2018-07-20T05:14:28.358Z,2364.00
2018-07-20T05:15:28.347Z,2376.00
2018-07-20T05:16:28.328Z,2388.00
2018-07-20T05:17:28.308Z,2404.00
2018-07-20T05:18:28.299Z,2412.00
2018-07-20T05:19:28.284Z,2432.00
2018-07-20T05:20:28.297Z,2448.00
2018-07-20T05:21:28.288Z,2472.00
2018-07-20T05:22:28.248Z,2496.00
2018-07-20T05:23:28.257Z,2524.00
2018-07-20T05:24:28.245Z,2552.00
2018-07-20T05:25:28.242Z,2584.00
2018-07-20T05:26:28.247Z,2624.00
2018-07-20T05:27:28.194Z,2660.00
2018-07-20T05:28:28.183Z,2684.00
2018-07-20T05:29:28.177Z,2712.00
2018-07-20T05:30:28.187Z,2740.00
2018-07-20T05:31:28.151Z,2768.00
2018-07-20T05:32:28.187Z,2792.00
2018-07-20T05:33:28.154Z,2816.00
2018-07-20T05:34:28.120Z,2844.00
2018-07-20T05:35:28.116Z,2868.00
2018-07-20T05:36:28.095Z,2904.00
2018-07-20T05:37:28.081Z,2928.00
2018-07-20T05:38:28.070Z,2952.00
2018-07-20T05:39:28.064Z,2980.00
2018-07-20T05:40:28.078Z,3016.00
2018-07-20T05:41:28.045Z,3044.00
2018-07-20T05:42:28.028Z,3080.00
2018-07-20T05:43:28.011Z,3116.00
2018-07-20T05:44:28.009Z,3156.00
2018-07-20T05:45:28.027Z,3204.00
2018-07-20T05:46:27.979Z,3248.00
2018-07-20T05:47:28.038Z,3288.00
2018-07-20T05:48:27.966Z,3328.00
2018-07-20T05:49:27.957Z,3364.00
2018-07-20T05:50:27.960Z,3392.00
2018-07-20T05:51:27.930Z,3420.00
2018-07-20T05:52:27.914Z,3440.00
2018-07-20T05:53:27.904Z,3464.00
2018-07-20T05:54:27.908Z,3484.00
2018-07-20T05:55:27.940Z,3500.00
2018-07-20T05:56:27.871Z,3524.00
2018-07-20T05:57:27.863Z,3544.00
2018-07-20T05:58:27.879Z,3564.00
2018-07-20T05:59:27.831Z,3588.00
2018-07-20T06:00:27.820Z,3612.00
2018-07-20T06:01:27.827Z,3648.00
2018-07-20T06:02:27.795Z,3688.00
2018-07-20T06:03:27.791Z,3800.00
2018-07-20T06:04:27.778Z,4176.00
2018-07-20T06:05:27.770Z,5776.00
2018-07-20T06:06:27.803Z,8244.00
2018-07-20T06:07:27.746Z,9148.00
2018-07-20T06:08:27.731Z,9268.00
2018-07-20T06:09:27.731Z,9464.00
2018-07-20T06:10:27.708Z,9704.00
2018-07-20T06:11:27.710Z,10128.00
2018-07-20T06:12:27.688Z,10180.00
2018-07-20T06:13:27.678Z,10320.00
2018-07-20T06:14:27.668Z,10380.00
2018-07-20T06:15:27.655Z,10632.00
2018-07-20T06:16:27.666Z,10836.00
2018-07-20T06:17:27.661Z,10880.00
2018-07-20T06:18:27.619Z,11112.00
2018-07-20T06:19:27.613Z,11892.00
2018-07-20T06:20:27.598Z,18304.00
2018-07-20T06:21:27.632Z,27584.00
2018-07-20T06:22:27.583Z,36736.00
2018-07-20T06:23:27.619Z,43264.00
2018-07-20T06:24:27.569Z,47072.00
2018-07-20T06:25:27.546Z,48832.00
2018-07-20T06:26:27.547Z,49472.00
2018-07-20T06:27:27.520Z,50560.00
2018-07-20T06:28:27.525Z,51584.00
2018-07-20T06:29:27.501Z,52128.00
2018-07-20T06:30:27.494Z,53344.00
2018-07-20T06:31:27.486Z,51264.00
2018-07-20T06:32:27.466Z,46016.00
2018-07-20T06:33:27.457Z,36192.00
2018-07-20T06:34:27.445Z,21152.00
2018-07-20T06:35:27.431Z,14272.00
2018-07-20T06:36:27.465Z,13472.00
2018-07-20T06:37:27.409Z,13448.00
2018-07-20T06:38:27.405Z,13564.00
2018-07-20T06:39:27.397Z,13564.00
2018-07-20T06:40:27.379Z,13760.00
2018-07-20T06:41:27.391Z,13888.00
2018-07-20T06:42:27.369Z,14048.00
2018-07-20T06:43:27.360Z,14016.00
2018-07-20T06:44:27.342Z,13952.00
2018-07-20T06:45:27.329Z,13856.00
2018-07-20T06:46:27.345Z,13888.00
2018-07-20T06:47:27.313Z,14272.00
2018-07-20T06:48:27.313Z,14592.00
2018-07-20T06:49:27.298Z,14784.00
2018-07-20T06:50:27.278Z,16128.00
2018-07-20T06:51:27.267Z,24064.00
2018-07-20T06:52:27.292Z,24672.00
2018-07-20T06:53:27.246Z,17632.00
2018-07-20T06:54:27.231Z,16352.00
2018-07-20T06:55:27.221Z,16192.00
2018-07-20T06:56:27.211Z,16416.00
2018-07-20T06:57:27.234Z,16736.00
2018-07-20T06:58:27.210Z,18272.00
2018-07-20T06:59:27.187Z,20032.00
2018-07-20T07:00:27.166Z,18240.00
2018-07-20T07:01:27.154Z,17376.00
2018-07-20T07:02:27.158Z,17152.00
2018-07-20T07:03:27.139Z,17312.00
2018-07-20T07:04:27.121Z,18304.00
2018-07-20T07:05:27.109Z,31904.00
2018-07-20T07:06:27.097Z,51936.00
2018-07-20T07:07:27.101Z,57824.00
2018-07-20T07:08:27.087Z,60064.00
2018-07-20T07:09:27.121Z,61888.00
2018-07-20T07:10:27.051Z,62784.00
2018-07-20T07:11:27.040Z,63360.00
2018-07-20T07:12:27.066Z,66208.00
2018-07-20T07:13:27.018Z,68896.00
2018-07-20T07:14:27.011Z,71168.00
2018-07-20T07:15:26.994Z,73888.00
2018-07-20T07:16:26.984Z,75616.00
2018-07-20T07:17:26.993Z,77088.00
2018-07-20T07:18:26.956Z,78272.00
2018-07-20T07:19:26.950Z,78880.00
2018-07-20T07:20:26.942Z,79520.00
2018-07-20T07:21:26.942Z,79360.00
2018-07-20T07:22:26.939Z,79744.00
2018-07-20T07:23:26.901Z,80832.00
2018-07-20T07:24:26.895Z,81408.00
2018-07-20T07:25:26.880Z,82656.00
2018-07-20T07:26:26.875Z,83200.00
2018-07-20T07:27:26.885Z,84512.00
2018-07-20T07:28:26.852Z,86208.00
2018-07-20T07:29:26.839Z,87232.00
2018-07-20T07:30:26.830Z,88384.00
2018-07-20T07:31:26.815Z,89632.00
2018-07-20T07:32:26.828Z,88960.00
2018-07-20T07:33:26.797Z,89312.00
2018-07-20T07:34:26.780Z,86560.00
2018-07-20T07:35:26.776Z,85056.00
2018-07-20T07:36:26.768Z,84608.00
2018-07-20T07:37:26.792Z,84736.00
2018-07-20T07:38:26.760Z,84032.00
2018-07-20T07:39:26.731Z,52736.00
2018-07-20T07:40:26.719Z,22752.00
2018-07-20T07:41:26.743Z,21536.00
2018-07-20T07:42:26.702Z,21344.00
2018-07-20T07:43:26.707Z,22048.00
2018-07-20T07:44:26.679Z,27776.00
2018-07-20T07:45:26.669Z,45504.00
2018-07-20T07:46:26.655Z,70464.00
2018-07-20T07:47:26.664Z,82272.00
2018-07-20T07:48:26.657Z,81632.00
2018-07-20T07:49:26.685Z,81152.00
2018-07-20T07:50:26.615Z,82528.00
2018-07-20T07:51:26.603Z,82016.00
2018-07-20T07:52:26.591Z,81376.00
2018-07-20T07:53:26.600Z,80384.00
2018-07-20T07:54:26.573Z,80384.00
2018-07-20T07:55:26.562Z,80288.00
2018-07-20T07:56:26.548Z,79840.00
2018-07-20T07:57:26.538Z,79552.00
2018-07-20T07:58:26.558Z,79296.00
2018-07-20T07:59:26.512Z,80224.00
2018-07-20T08:00:26.544Z,80704.00
2018-07-20T08:01:26.498Z,81024.00
2018-07-20T08:02:26.484Z,81184.00
2018-07-20T08:03:26.525Z,80800.00
2018-07-20T08:04:26.463Z,79648.00
2018-07-20T08:05:26.453Z,81120.00
2018-07-20T08:06:26.443Z,80352.00
2018-07-20T08:07:26.430Z,79328.00
2018-07-20T08:08:26.443Z,79424.00
2018-07-20T08:09:26.411Z,79520.00
2018-07-20T08:10:26.464Z,54336.00
2018-07-20T08:11:26.390Z,17440.00
2018-07-20T08:12:26.376Z,37632.00
2018-07-20T08:13:26.383Z,79968.00
2018-07-20T08:14:26.423Z,53856.00
2018-07-20T08:15:26.342Z,80544.00
2018-07-20T08:16:26.327Z,47168.00
2018-07-20T08:17:26.324Z,83840.00
2018-07-20T08:18:26.323Z,80480.00
2018-07-20T08:19:26.334Z,63936.00
2018-07-20T08:20:26.292Z,17248.00
2018-07-20T08:21:26.280Z,35264.00
2018-07-20T08:22:26.273Z,84864.00
2018-07-20T08:23:26.303Z,79680.00
2018-07-20T08:24:26.247Z,79904.00
2018-07-20T08:25:26.234Z,81856.00
2018-07-20T08:26:26.223Z,80160.00
2018-07-20T08:27:26.214Z,83072.00
2018-07-20T08:28:26.206Z,81088.00
2018-07-20T08:29:26.271Z,81472.00
2018-07-20T08:30:26.185Z,82368.00
2018-07-20T08:31:26.184Z,83584.00
2018-07-20T08:32:26.151Z,83200.00
2018-07-20T08:33:26.239Z,81984.00
2018-07-20T08:34:26.143Z,83744.00
2018-07-20T08:35:26.128Z,83456.00
2018-07-20T08:36:26.133Z,84704.00
2018-07-20T08:37:26.098Z,81664.00
2018-07-20T08:38:26.089Z,61504.00
2018-07-20T08:39:26.089Z,84480.00
2018-07-20T08:40:26.066Z,86016.00
2018-07-20T08:41:26.057Z,83840.00
2018-07-20T08:42:26.082Z,81568.00
2018-07-20T08:43:26.036Z,79520.00
2018-07-20T08:44:26.036Z,81088.00
2018-07-20T08:45:26.014Z,80480.00
2018-07-20T08:46:26.018Z,85184.00
2018-07-20T08:47:25.995Z,89056.00
2018-07-20T08:48:25.983Z,87328.00
2018-07-20T08:49:25.979Z,89760.00
2018-07-20T08:50:25.957Z,90432.00
2018-07-20T08:51:25.951Z,89984.00
2018-07-20T08:52:25.936Z,88960.00
2018-07-20T08:53:25.954Z,89376.00
2018-07-20T08:54:25.939Z,92992.00
2018-07-20T08:55:25.903Z,93760.00
2018-07-20T08:56:25.893Z,94176.00
2018-07-20T08:57:25.885Z,97024.00
2018-07-20T08:58:25.883Z,95680.00
2018-07-20T08:59:25.877Z,94400.00
2018-07-20T09:00:25.852Z,94080.00
2018-07-20T09:01:25.838Z,98560.00
2018-07-20T09:02:25.830Z,99904.00
2018-07-20T09:03:25.824Z,98848.00
2018-07-20T09:04:25.818Z,97696.00
2018-07-20T09:05:25.794Z,92192.00
2018-07-20T09:06:25.785Z,95552.00
2018-07-20T09:07:25.776Z,104000.00
2018-07-20T09:08:25.762Z,105760.00
2018-07-20T09:09:25.787Z,108288.00
2018-07-20T09:10:25.743Z,98368.00
2018-07-20T09:11:25.732Z,103232.00
2018-07-20T09:12:25.722Z,101536.00
2018-07-20T09:13:25.736Z,99040.00
2018-07-20T09:14:25.716Z,97952.00
2018-07-20T09:15:25.698Z,97504.00
2018-07-20T09:16:25.679Z,101888.00
2018-07-20T09:17:25.667Z,102272.00
2018-07-20T09:18:25.660Z,100608.00
2018-07-20T09:19:25.643Z,102656.00
2018-07-20T09:20:25.643Z,105760.00
2018-07-20T09:21:25.623Z,104096.00
2018-07-20T09:22:25.611Z,104832.00
2018-07-20T09:23:25.602Z,103776.00
2018-07-20T09:24:25.609Z,104480.00
2018-07-20T09:25:25.594Z,104640.00
2018-07-20T09:26:25.567Z,104544.00
2018-07-20T09:27:25.556Z,112192.00
2018-07-20T09:28:25.564Z,113888.00
2018-07-20T09:29:25.562Z,111584.00
2018-07-20T09:30:25.543Z,105248.00
2018-07-20T09:31:25.514Z,106624.00
2018-07-20T09:32:25.504Z,117248.00
2018-07-20T09:33:25.491Z,116544.00
2018-07-20T09:34:25.480Z,113024.00
2018-07-20T09:35:25.485Z,117824.00
2018-07-20T09:36:25.460Z,116224.00
2018-07-20T09:37:25.447Z,116608.00
2018-07-20T09:38:25.438Z,112864.00
2018-07-20T09:39:25.532Z,107456.00
2018-07-20T09:40:25.428Z,109920.00
2018-07-20T09:41:25.404Z,109600.00
2018-07-20T09:42:25.396Z,112192.00
2018-07-20T09:43:25.397Z,113248.00
2018-07-20T09:44:25.417Z,108928.00
2018-07-20T09:45:25.373Z,114496.00
2018-07-20T09:46:25.352Z,113248.00
2018-07-20T09:47:25.341Z,107776.00
2018-07-20T09:48:25.333Z,111520.00
2018-07-20T09:49:25.319Z,109312.00
2018-07-20T09:50:25.320Z,111616.00
2018-07-20T09:51:25.298Z,82048.00
2018-07-20T09:52:25.297Z,17888.00
2018-07-20T09:53:25.302Z,76800.00
2018-07-20T09:54:25.271Z,98176.00
2018-07-20T09:55:25.288Z,82272.00
2018-07-20T09:56:25.258Z,93504.00
2018-07-20T09:57:25.235Z,15316.00
2018-07-20T09:58:25.238Z,19808.00
2018-07-20T09:59:25.252Z,68768.00
2018-07-20T10:00:25.240Z,98176.00
2018-07-20T10:01:25.193Z,84416.00
2018-07-20T10:02:25.177Z,99200.00
2018-07-20T10:03:25.167Z,74592.00
2018-07-20T10:04:25.158Z,91264.00
2018-07-20T10:05:25.149Z,34400.00
2018-07-20T10:06:25.146Z,94048.00
2018-07-20T10:07:25.125Z,95200.00
2018-07-20T10:08:25.111Z,33408.00
2018-07-20T10:09:25.117Z,11568.00
2018-07-20T10:10:25.091Z,17600.00
2018-07-20T10:11:25.091Z,12224.00
2018-07-20T10:12:25.067Z,20544.00
2018-07-20T10:13:25.058Z,16992.00
2018-07-20T10:14:25.044Z,16352.00
2018-07-20T10:15:25.035Z,14548.00
2018-07-20T10:16:25.034Z,14276.00
2018-07-20T10:17:25.013Z,13696.00
2018-07-20T10:18:25.007Z,13692.00
2018-07-20T10:19:24.996Z,12628.00
2018-07-20T10:20:24.980Z,11672.00
2018-07-20T10:21:24.981Z,10328.00
2018-07-20T10:22:24.959Z,10896.00
2018-07-20T10:23:24.953Z,12080.00
2018-07-20T10:24:24.937Z,14212.00
2018-07-20T10:25:24.933Z,12992.00
2018-07-20T10:26:24.926Z,12012.00
2018-07-20T10:27:24.916Z,11696.00
2018-07-20T10:28:24.894Z,11184.00
2018-07-20T10:29:24.890Z,10668.00
2018-07-20T10:30:24.879Z,10120.00
2018-07-20T10:31:24.877Z,9720.00
2018-07-20T10:32:24.852Z,9552.00
2018-07-20T10:33:24.840Z,9408.00
2018-07-20T10:34:24.831Z,9304.00
2018-07-20T10:35:24.818Z,9212.00
2018-07-20T10:36:24.823Z,9028.00
2018-07-20T10:37:24.800Z,8900.00
2018-07-20T10:38:24.786Z,8816.00
2018-07-20T10:39:24.776Z,8784.00
2018-07-20T10:40:24.765Z,8756.00
2018-07-20T10:41:24.756Z,8804.00
2018-07-20T10:42:24.754Z,8988.00
2018-07-20T10:43:24.731Z,9256.00
2018-07-20T10:44:24.725Z,9628.00
2018-07-20T10:45:24.713Z,10132.00
2018-07-20T10:46:24.699Z,10340.00
2018-07-20T10:47:24.699Z,10248.00
2018-07-20T10:48:24.678Z,9608.00
2018-07-20T10:49:24.665Z,9432.00
2018-07-20T10:50:24.659Z,9220.00
2018-07-20T10:51:24.647Z,8876.00
2018-07-20T10:52:24.645Z,8640.00
2018-07-20T10:53:24.622Z,8308.00
2018-07-20T10:54:24.612Z,8128.00
2018-07-20T10:55:24.607Z,7900.00
2018-07-20T10:56:24.591Z,7876.00
2018-07-20T10:57:24.590Z,7824.00
2018-07-20T10:58:24.574Z,7856.00
2018-07-20T10:59:24.563Z,8320.00
2018-07-20T11:00:24.550Z,8592.00
2018-07-20T11:01:24.645Z,8760.00
2018-07-20T11:02:24.540Z,8744.00
2018-07-20T11:03:24.517Z,8844.00
2018-07-20T11:04:24.506Z,8756.00
2018-07-20T11:05:24.499Z,8664.00
2018-07-20T11:06:24.484Z,8276.00
2018-07-20T11:07:24.483Z,7944.00
2018-07-20T11:08:24.464Z,7776.00
2018-07-20T11:09:24.451Z,7760.00
2018-07-20T11:10:24.439Z,7720.00
2018-07-20T11:11:24.444Z,7848.00
2018-07-20T11:12:24.429Z,8220.00
2018-07-20T11:13:24.410Z,8508.00
2018-07-20T11:14:24.408Z,8620.00
2018-07-20T11:15:24.386Z,8496.00
2018-07-20T11:16:24.378Z,8228.00
2018-07-20T11:17:24.376Z,7668.00
2018-07-20T11:18:24.354Z,7404.00
2018-07-20T11:19:24.344Z,7472.00
2018-07-20T11:20:24.362Z,7580.00
2018-07-20T11:21:24.320Z,7776.00
2018-07-20T11:22:24.328Z,8048.00
2018-07-20T11:23:24.300Z,8236.00
2018-07-20T11:24:24.288Z,8168.00
2018-07-20T11:25:24.279Z,7940.00
2018-07-20T11:26:24.270Z,7828.00
2018-07-20T11:27:24.305Z,7620.00
2018-07-20T11:28:24.291Z,7168.00
2018-07-20T11:29:24.240Z,6840.00
2018-07-20T11:30:24.220Z,6604.00
2018-07-20T11:31:24.212Z,6760.00
2018-07-20T11:32:24.202Z,6788.00
2018-07-20T11:33:24.201Z,6848.00
2018-07-20T11:34:24.185Z,6792.00
2018-07-20T11:35:24.174Z,6584.00
2018-07-20T11:36:24.159Z,6412.00
2018-07-20T11:37:24.146Z,5972.00
2018-07-20T11:38:24.146Z,6196.00
2018-07-20T11:39:24.126Z,6232.00
2018-07-20T11:40:24.118Z,6080.00
2018-07-20T11:41:24.102Z,6188.00
2018-07-20T11:42:24.095Z,6348.00
2018-07-20T11:43:24.094Z,6328.00
2018-07-20T11:44:24.074Z,6328.00
2018-07-20T11:45:24.065Z,6380.00
2018-07-20T11:46:24.048Z,6488.00
2018-07-20T11:47:24.037Z,6612.00
2018-07-20T11:48:24.037Z,6904.00
2018-07-20T11:49:24.026Z,7332.00
2018-07-20T11:50:24.006Z,7700.00
2018-07-20T11:51:24.007Z,7936.00
2018-07-20T11:52:23.986Z,7628.00
2018-07-20T11:53:23.986Z,7116.00
2018-07-20T11:54:23.962Z,7140.00
2018-07-20T11:55:23.956Z,7072.00
2018-07-20T11:56:23.942Z,6616.00
2018-07-20T11:57:23.930Z,6188.00
2018-07-20T11:58:23.935Z,5924.00
2018-07-20T11:59:23.910Z,5720.00
2018-07-20T12:00:23.900Z,5800.00
2018-07-20T12:01:23.935Z,6000.00
2018-07-20T12:02:23.878Z,5968.00
2018-07-20T12:03:23.883Z,5764.00
2018-07-20T12:04:23.854Z,5648.00
2018-07-20T12:05:23.845Z,5272.00
2018-07-20T12:06:23.838Z,4772.00
2018-07-20T12:07:23.823Z,4660.00
2018-07-20T12:08:23.816Z,4780.00
2018-07-20T12:09:23.816Z,5076.00
2018-07-20T12:10:23.792Z,5408.00
2018-07-20T12:11:23.781Z,5872.00
2018-07-20T12:12:23.767Z,5668.00
2018-07-20T12:13:23.763Z,5576.00
2018-07-20T12:14:23.761Z,5676.00
2018-07-20T12:15:23.737Z,5844.00
2018-07-20T12:16:23.727Z,5396.00
2018-07-20T12:17:23.717Z,5232.00
2018-07-20T12:18:23.702Z,5860.00
2018-07-20T12:19:23.738Z,6016.00
2018-07-20T12:20:23.681Z,6212.00
2018-07-20T12:21:23.674Z,6480.00
2018-07-20T12:22:23.675Z,6404.00
2018-07-20T12:23:23.651Z,7104.00
2018-07-20T12:24:23.694Z,7048.00
2018-07-20T12:25:23.631Z,6588.00
2018-07-20T12:26:23.621Z,6180.00
2018-07-20T12:27:23.609Z,6168.00
2018-07-20T12:28:23.609Z,6264.00
2018-07-20T12:29:23.593Z,6160.00
2018-07-20T12:30:23.579Z,6276.00
2018-07-20T12:31:23.562Z,6404.00
2018-07-20T12:32:23.552Z,6536.00
2018-07-20T12:33:23.546Z,6464.00
2018-07-20T12:34:23.547Z,6220.00
2018-07-20T12:35:23.519Z,5968.00
2018-07-20T12:36:23.515Z,5824.00
2018-07-20T12:37:23.499Z,5668.00
2018-07-20T12:38:23.490Z,5860.00
2018-07-20T12:39:23.491Z,6196.00
2018-07-20T12:40:23.468Z,6248.00
2018-07-20T12:41:23.458Z,6064.00
2018-07-20T12:42:23.448Z,6320.00
2018-07-20T12:43:23.434Z,6644.00
2018-07-20T12:44:23.432Z,6796.00
2018-07-20T12:45:23.416Z,6676.00
2018-07-20T12:46:23.404Z,6700.00
2018-07-20T12:47:23.392Z,6668.00
2018-07-20T12:48:23.378Z,6524.00
2018-07-20T12:49:23.379Z,6400.00
2018-07-20T12:50:23.411Z,6196.00
2018-07-20T12:51:23.361Z,6028.00
2018-07-20T12:52:23.339Z,5644.00
2018-07-20T12:53:23.348Z,5288.00
2018-07-20T12:54:23.331Z,5072.00
2018-07-20T12:55:23.303Z,5196.00
2018-07-20T12:56:23.291Z,5348.00
2018-07-20T12:57:23.285Z,5500.00
2018-07-20T12:58:23.332Z,5684.00
2018-07-20T12:59:23.274Z,5672.00
2018-07-20T13:00:23.250Z,5404.00
2018-07-20T13:01:23.239Z,5124.00
2018-07-20T13:02:23.228Z,4952.00
2018-07-20T13:03:23.217Z,5020.00
2018-07-20T13:04:23.226Z,5224.00
2018-07-20T13:05:23.195Z,5340.00
2018-07-20T13:06:23.185Z,5520.00
2018-07-20T13:07:23.176Z,5836.00
2018-07-20T13:08:23.167Z,6028.00
2018-07-20T13:09:23.152Z,6160.00
2018-07-20T13:10:23.162Z,6260.00
2018-07-20T13:11:23.130Z,6388.00
2018-07-20T13:12:23.196Z,6512.00
2018-07-20T13:13:23.111Z,6472.00
2018-07-20T13:14:23.100Z,6428.00
2018-07-20T13:15:23.107Z,6536.00
2018-07-20T13:16:23.076Z,6628.00
2018-07-20T13:17:23.065Z,6720.00
2018-07-20T13:18:23.058Z,6860.00
2018-07-20T13:19:23.046Z,6988.00
2018-07-20T13:20:23.065Z,7016.00
2018-07-20T13:21:23.024Z,6940.00
2018-07-20T13:22:23.014Z,6916.00
2018-07-20T13:23:23.008Z,6916.00
2018-07-20T13:24:22.988Z,6944.00
2018-07-20T13:25:22.984Z,7032.00
2018-07-20T13:26:22.977Z,6964.00
2018-07-20T13:27:22.962Z,6936.00
2018-07-20T13:28:22.947Z,7240.00
2018-07-20T13:29:22.939Z,7136.00
2018-07-20T13:30:22.925Z,6976.00
2018-07-20T13:31:22.929Z,6888.00
2018-07-20T13:32:22.904Z,6664.00
2018-07-20T13:33:22.896Z,6400.00
2018-07-20T13:34:22.881Z,6136.00
2018-07-20T13:35:22.880Z,5904.00
2018-07-20T13:36:22.879Z,5736.00
2018-07-20T13:37:22.851Z,5664.00
2018-07-20T13:38:22.837Z,5584.00
2018-07-20T13:39:22.830Z,5580.00
2018-07-20T13:40:22.815Z,5656.00
2018-07-20T13:41:22.822Z,5600.00
2018-07-20T13:42:22.799Z,5480.00
2018-07-20T13:43:22.785Z,5476.00
2018-07-20T13:44:22.775Z,5560.00
2018-07-20T13:45:22.797Z,5712.00
2018-07-20T13:46:22.766Z,5936.00
2018-07-20T13:47:22.747Z,6212.00
2018-07-20T13:48:22.736Z,6580.00
2018-07-20T13:49:22.717Z,6960.00
2018-07-20T13:50:22.707Z,7308.00
2018-07-20T13:51:23.222Z,7600.00
2018-07-20T13:52:22.686Z,7812.00
2018-07-20T13:53:22.682Z,7960.00
2018-07-20T13:54:22.691Z,8008.00
2018-07-20T13:55:22.659Z,8004.00
2018-07-20T13:56:22.917Z,8000.00
2018-07-20T13:57:22.665Z,8036.00
2018-07-20T13:58:22.664Z,8100.00
2018-07-20T13:59:22.614Z,8164.00
2018-07-20T14:00:22.610Z,8196.00
2018-07-20T14:01:22.598Z,8200.00
2018-07-20T14:02:22.594Z,8224.00
2018-07-20T14:03:22.571Z,8304.00
2018-07-20T14:04:22.556Z,8400.00
2018-07-20T14:05:22.552Z,8428.00
2018-07-20T14:06:22.540Z,8392.00
2018-07-20T14:07:22.543Z,8332.00
2018-07-20T14:08:22.515Z,8252.00
2018-07-20T14:09:22.503Z,8116.00
2018-07-20T14:10:22.501Z,7952.00
2018-07-20T14:11:22.507Z,7832.00
2018-07-20T14:12:22.483Z,7700.00
2018-07-20T14:13:22.463Z,7540.00
2018-07-20T14:14:22.449Z,7420.00
2018-07-20T14:15:22.440Z,7296.00
2018-07-20T14:16:22.428Z,7160.00
2018-07-20T14:17:22.433Z,7088.00
2018-07-20T14:18:22.406Z,6988.00
2018-07-20T14:19:22.395Z,6808.00
2018-07-20T14:20:22.384Z,6556.00
2018-07-20T14:21:22.374Z,6268.00
2018-07-20T14:22:22.385Z,6004.00
2018-07-20T14:23:22.356Z,5736.00
2018-07-20T14:24:22.344Z,5476.00
2018-07-20T14:25:22.333Z,5224.00
2018-07-20T14:26:22.354Z,4956.00
2018-07-20T14:27:22.310Z,4696.00
2018-07-20T14:28:22.309Z,4464.00
2018-07-20T14:29:22.288Z,4248.00
2018-07-20T14:30:22.276Z,4076.00
2018-07-20T14:31:22.328Z,3944.00
2018-07-20T14:32:22.255Z,3844.00
2018-07-20T14:33:22.285Z,3780.00
2018-07-20T14:34:22.233Z,3740.00
2018-07-20T14:35:22.223Z,3704.00
2018-07-20T14:36:22.211Z,3660.00
2018-07-20T14:37:22.200Z,3592.00
2018-07-20T14:38:22.200Z,3528.00
2018-07-20T14:39:22.184Z,3548.00
2018-07-20T14:40:22.208Z,3568.00
2018-07-20T14:41:22.159Z,3544.00
2018-07-20T14:42:22.147Z,3512.00
2018-07-20T14:43:22.148Z,3444.00
2018-07-20T14:44:22.134Z,3424.00
2018-07-20T14:45:22.117Z,3416.00
2018-07-20T14:46:22.106Z,3404.00
2018-07-20T14:47:22.095Z,3308.00
2018-07-20T14:48:22.109Z,3156.00
2018-07-20T14:49:22.077Z,3028.00
2018-07-20T14:50:22.062Z,2972.00
2018-07-20T14:51:22.100Z,2936.00
2018-07-20T14:52:22.041Z,2876.00
2018-07-20T14:53:22.028Z,2852.00
2018-07-20T14:54:22.032Z,2908.00
2018-07-20T14:55:22.007Z,2852.00
2018-07-20T14:56:21.996Z,2760.00
2018-07-20T14:57:21.987Z,2672.00
2018-07-20T14:58:21.974Z,2656.00
2018-07-20T14:59:21.978Z,2648.00
2018-07-20T15:00:21.958Z,2644.00
2018-07-20T15:01:21.947Z,2660.00
2018-07-20T15:02:21.981Z,2676.00
2018-07-20T15:03:21.922Z,2628.00
2018-07-20T15:04:21.926Z,2676.00
2018-07-20T15:05:21.906Z,2824.00
2018-07-20T15:06:21.886Z,2916.00
2018-07-20T15:07:22.378Z,2988.00
2018-07-20T15:08:21.864Z,3012.00
2018-07-20T15:09:21.860Z,3148.00
2018-07-20T15:10:21.863Z,3236.00
2018-07-20T15:11:21.841Z,3300.00
2018-07-20T15:12:21.876Z,3396.00
2018-07-20T15:13:21.814Z,3524.00
2018-07-20T15:14:21.799Z,3680.00
2018-07-20T15:15:21.809Z,3828.00
2018-07-20T15:16:21.784Z,3972.00
2018-07-20T15:17:21.769Z,4128.00
2018-07-20T15:18:21.756Z,4312.00
2018-07-20T15:19:21.745Z,4476.00
2018-07-20T15:20:21.753Z,4636.00
2018-07-20T15:21:21.728Z,4776.00
2018-07-20T15:22:21.711Z,4864.00
2018-07-20T15:23:21.745Z,4872.00
2018-07-20T15:24:21.689Z,4824.00
2018-07-20T15:25:21.692Z,4728.00
2018-07-20T15:26:21.674Z,4572.00
2018-07-20T15:27:21.667Z,4380.00
2018-07-20T15:28:21.644Z,4224.00
2018-07-20T15:29:21.638Z,4052.00
2018-07-20T15:30:21.639Z,3920.00
2018-07-20T15:31:21.702Z,3832.00
2018-07-20T15:32:21.603Z,3728.00
2018-07-20T15:33:21.603Z,3668.00
2018-07-20T15:34:21.579Z,3656.00
2018-07-20T15:35:21.592Z,3636.00
2018-07-20T15:36:21.558Z,3604.00
2018-07-20T15:37:21.546Z,3576.00
2018-07-20T15:38:21.534Z,3532.00
2018-07-20T15:39:21.577Z,3464.00
2018-07-20T15:40:21.515Z,3416.00
2018-07-20T15:41:21.653Z,3384.00
2018-07-20T15:42:21.491Z,3340.00
2018-07-20T15:43:21.478Z,3300.00
2018-07-20T15:44:21.468Z,3280.00
2018-07-20T15:45:21.456Z,3252.00
2018-07-20T15:46:21.585Z,3220.00
2018-07-20T15:47:21.451Z,3184.00
2018-07-20T15:48:21.427Z,3132.00
2018-07-20T15:49:21.413Z,3080.00
2018-07-20T15:50:21.401Z,3020.00
2018-07-20T15:51:31.577Z,2952.00
2018-07-20T15:53:37.678Z,2800.00
2018-07-20T15:54:22.406Z,2732.00
2018-07-20T15:55:21.346Z,2664.00
2018-07-20T15:56:21.343Z,2624.00
2018-07-20T15:57:21.323Z,2612.00
2018-07-20T15:58:21.313Z,2604.00